Time;durP1;ratioP1;P1;durP2;ratioP2;P2;SDS_P1;SDS_P2;PMS_P1;PMS_P2;Temp;Humidity;BMP_temperature;BMP_pressure;BME280_temperature;BME280_humidity;BME280_pressure;Samples;Min_cycle;Max_cycle;Signal;HPM_P1;HPM_P2
2023/09/02 00:01:23;;;;;;;;;;;21.30;53.60;;;;;;1541351;75;767;-57
2023/09/02 00:03:25;;;;;;;;;;;21.20;53.40;;;;;;1552716;75;683;-57
2023/09/02 00:05:27;;;;;;;;;;;21.20;53.40;;;;;;1556453;75;663;-55
2023/09/02 00:07:29;;;;;;;;;;;21.20;53.40;;;;;;1551201;75;1557;-55
2023/09/02 00:09:31;;;;;;;;;;;21.20;53.40;;;;;;1556615;75;1148;-57
2023/09/02 00:11:33;;;;;;;;;;;21.20;53.50;;;;;;1540984;75;715;-55
2023/09/02 00:13:36;;;;;;;;;;;21.20;53.50;;;;;;1556302;75;1943;-55
2023/09/02 00:15:38;;;;;;;;;;;21.20;53.40;;;;;;1554052;75;733;-57
2023/09/02 00:17:39;;;;;;;;;;;21.20;53.30;;;;;;1548577;75;809;-54
2023/09/02 00:19:43;;;;;;;;;;;20.30;52.90;;;;;;1545552;75;1421;-54
2023/09/02 00:21:45;;;;;;;;;;;21.20;53.30;;;;;;1551998;75;1326;-59
2023/09/02 00:23:47;;;;;;;;;;;21.20;53.30;;;;;;1551747;75;742;-56
2023/09/02 00:25:48;;;;;;;;;;;21.20;53.30;;;;;;1550568;75;677;-58
2023/09/02 00:27:50;;;;;;;;;;;21.10;53.30;;;;;;1552170;75;717;-57
2023/09/02 00:29:52;;;;;;;;;;;21.20;53.30;;;;;;1547886;75;1096;-53
2023/09/02 00:31:54;;;;;;;;;;;21.20;53.30;;;;;;1547693;75;810;-58
2023/09/02 00:33:56;;;;;;;;;;;21.20;53.30;;;;;;1553078;75;1943;-54
2023/09/02 00:35:58;;;;;;;;;;;21.10;53.30;;;;;;1555787;76;1547;-56
2023/09/02 00:38:00;;;;;;;;;;;21.20;53.30;;;;;;1534627;76;694;-57
2023/09/02 00:40:01;;;;;;;;;;;21.10;53.20;;;;;;1521285;77;1147;-57
2023/09/02 00:42:04;;;;;;;;;;;21.20;53.20;;;;;;1523370;76;753;-53
2023/09/02 00:44:06;;;;;;;;;;;21.10;53.20;;;;;;1556969;75;759;-53
2023/09/02 00:46:08;;;;;;;;;;;21.10;53.20;;;;;;1538549;76;768;-54
2023/09/02 00:48:10;;;;;;;;;;;21.20;53.20;;;;;;1532011;76;792;-57
2023/09/02 00:50:12;;;;;;;;;;;21.20;53.20;;;;;;1535560;76;1544;-54
2023/09/02 00:52:14;;;;;;;;;;;21.10;53.20;;;;;;1530306;76;705;-59
2023/09/02 00:54:15;;;;;;;;;;;21.10;53.20;;;;;;1539721;76;1935;-54
2023/09/02 00:56:17;;;;;;;;;;;21.10;53.10;;;;;;1529117;77;712;-57
2023/09/02 00:58:19;;;;;;;;;;;21.10;53.10;;;;;;1560194;75;745;-53
2023/09/02 01:00:22;;;;;;;;;;;21.40;53.20;;;;;;1518261;77;1086;-53
2023/09/02 01:02:24;;;;;;;;;;;21.10;53.10;;;;;;1554270;75;813;-56
2023/09/02 01:04:26;;;;;;;;;;;21.10;53.00;;;;;;1549237;75;1505;-59
2023/09/02 01:06:28;;;;;;;;;;;21.10;53.00;;;;;;1545742;75;729;-56
2023/09/02 01:08:33;;;;;;;;;;;21.10;53.00;;;;;;1555175;75;632;-59
2023/09/02 01:10:35;;;;;;;;;;;21.10;53.00;;;;;;1547181;75;1092;-55
2023/09/02 01:12:37;;;;;;;;;;;21.10;53.00;;;;;;1550421;75;1920;-54
2023/09/02 01:14:38;;;;;;;;;;;21.10;53.00;;;;;;1546553;75;807;-58
2023/09/02 01:16:40;;;;;;;;;;;21.00;52.80;;;;;;1553300;75;672;-58
2023/09/02 01:18:42;;;;;;;;;;;21.10;52.90;;;;;;1549868;75;1394;-54
2023/09/02 01:20:49;;;;;;;;;;;21.10;52.90;;;;;;1543591;75;1136;-56
2023/09/02 01:23:07;;;;;;;;;;;21.00;52.80;;;;;;1545574;75;1884;-55
2023/09/02 01:25:20;;;;;;;;;;;21.00;52.80;;;;;;1534795;75;975;-54
2023/09/02 01:27:23;;;;;;;;;;;21.10;52.80;;;;;;1440406;80;1030;-56
2023/09/02 01:29:25;;;;;;;;;;;21.00;52.80;;;;;;1525151;75;1156;-56
2023/09/02 01:31:28;;;;;;;;;;;21.10;52.80;;;;;;1536676;75;1305;-55
2023/09/02 01:33:30;;;;;;;;;;;21.10;52.80;;;;;;1549555;75;1924;-57
2023/09/02 01:35:33;;;;;;;;;;;21.10;52.80;;;;;;1546729;75;774;-56
2023/09/02 01:37:37;;;;;;;;;;;21.10;52.80;;;;;;1547940;75;677;-56
2023/09/02 01:39:39;;;;;;;;;;;21.00;52.70;;;;;;1546801;75;1983;-54
2023/09/02 01:41:41;;;;;;;;;;;21.00;52.70;;;;;;1545178;75;741;-53
2023/09/02 01:43:44;;;;;;;;;;;21.00;52.70;;;;;;1548711;75;719;-52
2023/09/02 01:45:46;;;;;;;;;;;21.10;52.80;;;;;;1553833;75;1485;-54
2023/09/02 01:47:47;;;;;;;;;;;21.00;52.60;;;;;;1551005;75;792;-54
2023/09/02 01:49:50;;;;;;;;;;;21.10;52.70;;;;;;1546357;75;1129;-56
2023/09/02 01:51:52;;;;;;;;;;;21.00;52.60;;;;;;1538375;75;741;-57
2023/09/02 01:53:54;;;;;;;;;;;21.00;52.60;;;;;;1560283;75;1951;-53
2023/09/02 01:55:57;;;;;;;;;;;21.00;52.60;;;;;;1538930;75;693;-54
2023/09/02 01:57:59;;;;;;;;;;;21.00;52.60;;;;;;1559637;75;689;-56
2023/09/02 02:00:01;;;;;;;;;;;21.10;52.60;;;;;;1554074;75;1369;-55
2023/09/02 02:02:03;;;;;;;;;;;21.00;52.60;;;;;;1544532;75;649;-55
2023/09/02 02:04:07;;;;;;;;;;;21.00;52.50;;;;;;1553322;75;788;-57
2023/09/02 02:06:11;;;;;;;;;;;21.00;52.40;;;;;;1557932;75;736;-56
2023/09/02 02:08:15;;;;;;;;;;;21.00;52.40;;;;;;1544777;75;777;-56
2023/09/02 02:10:17;;;;;;;;;;;21.00;52.40;;;;;;1541347;75;1141;-54
2023/09/02 02:12:18;;;;;;;;;;;21.00;52.30;;;;;;1544428;75;662;-53
2023/09/02 02:14:20;;;;;;;;;;;21.00;52.30;;;;;;1543572;75;1930;-57
2023/09/02 02:16:22;;;;;;;;;;;21.00;52.30;;;;;;1556375;75;714;-56
2023/09/02 02:18:24;;;;;;;;;;;20.90;52.30;;;;;;1537210;75;817;-56
2023/09/02 02:20:28;;;;;;;;;;;21.00;52.30;;;;;;1550131;75;1174;-57
2023/09/02 02:22:30;;;;;;;;;;;20.90;52.30;;;;;;1542709;75;1569;-57
2023/09/02 02:24:32;;;;;;;;;;;21.00;52.30;;;;;;1554087;75;689;-54
2023/09/02 02:26:34;;;;;;;;;;;20.90;52.20;;;;;;1555669;75;722;-53
2023/09/02 02:28:37;;;;;;;;;;;20.90;52.20;;;;;;1551967;75;1400;-57
2023/09/02 02:30:39;;;;;;;;;;;20.90;52.20;;;;;;1540156;75;1784;-57
2023/09/02 02:32:41;;;;;;;;;;;20.90;52.20;;;;;;1537701;75;714;-57
2023/09/02 02:34:43;;;;;;;;;;;21.00;52.10;;;;;;1549845;75;1922;-52
2023/09/02 02:36:45;;;;;;;;;;;21.00;52.10;;;;;;1544743;75;685;-53
2023/09/02 02:38:47;;;;;;;;;;;20.90;52.10;;;;;;1538796;75;684;-54
2023/09/02 02:40:48;;;;;;;;;;;20.90;52.10;;;;;;1544972;75;1152;-55
2023/09/02 02:42:50;;;;;;;;;;;20.90;52.10;;;;;;1539953;75;1592;-58
2023/09/02 02:44:52;;;;;;;;;;;20.90;52.00;;;;;;1548494;75;729;-55
2023/09/02 02:46:54;;;;;;;;;;;20.90;52.00;;;;;;1545628;75;676;-57
2023/09/02 02:48:56;;;;;;;;;;;20.90;52.10;;;;;;1551181;75;686;-57
2023/09/02 02:50:58;;;;;;;;;;;20.90;52.00;;;;;;1544212;75;1127;-58
2023/09/02 02:53:00;;;;;;;;;;;20.90;52.00;;;;;;1548903;75;1936;-56
2023/09/02 02:55:02;;;;;;;;;;;20.90;52.00;;;;;;1557396;75;751;-55
2023/09/02 02:57:04;;;;;;;;;;;20.90;52.00;;;;;;1544155;75;1589;-56
2023/09/02 02:59:06;;;;;;;;;;;20.90;52.00;;;;;;1555549;75;752;-55
2023/09/02 03:01:14;;;;;;;;;;;20.90;51.90;;;;;;1546298;75;1117;-57
2023/09/02 03:03:14;;;;;;;;;;;20.90;52.00;;;;;;1545324;75;1322;-55
2023/09/02 03:05:18;;;;;;;;;;;20.90;52.00;;;;;;1539413;75;777;-58
2023/09/02 03:07:19;;;;;;;;;;;20.90;52.00;;;;;;1539469;75;1602;-58
2023/09/02 03:09:21;;;;;;;;;;;20.80;51.90;;;;;;1540464;75;1142;-58
2023/09/02 03:11:23;;;;;;;;;;;20.90;52.00;;;;;;1544740;75;1431;-56
2023/09/02 03:13:25;;;;;;;;;;;20.80;51.90;;;;;;1551676;75;1942;-58
2023/09/02 03:15:27;;;;;;;;;;;20.90;52.00;;;;;;1543543;75;770;-58
2023/09/02 03:17:28;;;;;;;;;;;20.90;52.00;;;;;;1538348;75;724;-58
2023/09/02 03:19:30;;;;;;;;;;;20.80;51.90;;;;;;1546402;75;1173;-58
2023/09/02 03:21:32;;;;;;;;;;;20.90;51.90;;;;;;1551321;75;779;-57
2023/09/02 03:23:34;;;;;;;;;;;20.90;52.00;;;;;;1546385;75;686;-57
2023/09/02 03:25:37;;;;;;;;;;;20.90;51.90;;;;;;1547609;75;1877;-55
2023/09/02 03:27:39;;;;;;;;;;;20.80;51.80;;;;;;1542757;75;747;-58
2023/09/02 03:29:41;;;;;;;;;;;20.80;51.70;;;;;;1539631;75;1123;-58
2023/09/02 03:31:43;;;;;;;;;;;20.80;51.70;;;;;;1547253;75;718;-58
2023/09/02 03:33:45;;;;;;;;;;;20.80;51.70;;;;;;1559624;75;1943;-57
2023/09/02 03:35:48;;;;;;;;;;;20.80;51.70;;;;;;1549193;75;722;-56
2023/09/02 03:37:50;;;;;;;;;;;20.90;51.70;;;;;;1550016;75;1497;-58
2023/09/02 03:39:52;;;;;;;;;;;20.80;51.50;;;;;;1552158;75;1139;-58
2023/09/02 03:41:53;;;;;;;;;;;20.80;51.50;;;;;;1507149;77;1336;-57
2023/09/02 03:43:56;;;;;;;;;;;20.80;51.50;;;;;;1546254;75;666;-56
2023/09/02 03:45:58;;;;;;;;;;;20.80;51.50;;;;;;1546285;75;748;-55
2023/09/02 03:48:00;;;;;;;;;;;20.80;51.50;;;;;;1550806;75;782;-56
2023/09/02 03:50:02;;;;;;;;;;;20.80;51.50;;;;;;1543193;75;1105;-57
2023/09/02 03:52:04;;;;;;;;;;;20.80;51.50;;;;;;1537252;75;1543;-53
2023/09/02 03:54:06;;;;;;;;;;;20.80;51.50;;;;;;1555899;75;1942;-56
2023/09/02 03:56:08;;;;;;;;;;;20.80;51.50;;;;;;1556912;75;812;-54
2023/09/02 03:58:10;;;;;;;;;;;20.70;51.50;;;;;;1555632;75;744;-54
2023/09/02 04:00:13;;;;;;;;;;;20.70;51.40;;;;;;1548290;75;1156;-54
2023/09/02 04:02:15;;;;;;;;;;;20.80;51.40;;;;;;1554307;75;740;-54
2023/09/02 04:04:17;;;;;;;;;;;20.70;51.50;;;;;;1544206;75;803;-53
2023/09/02 04:06:18;;;;;;;;;;;20.70;51.50;;;;;;1543545;75;1277;-56
2023/09/02 04:08:22;;;;;;;;;;;20.80;51.50;;;;;;1546312;75;745;-56
2023/09/02 04:10:24;;;;;;;;;;;20.70;51.50;;;;;;1538671;75;1146;-54
2023/09/02 04:12:26;;;;;;;;;;;20.70;51.50;;;;;;1542437;75;679;-54
2023/09/02 04:14:27;;;;;;;;;;;20.70;51.50;;;;;;1545356;75;1930;-54
2023/09/02 04:16:30;;;;;;;;;;;20.80;51.50;;;;;;1559134;75;742;-56
2023/09/02 04:18:32;;;;;;;;;;;20.70;51.50;;;;;;1538574;75;755;-53
2023/09/02 04:20:36;;;;;;;;;;;20.80;51.50;;;;;;1540772;75;1457;-56
2023/09/02 04:22:38;;;;;;;;;;;20.70;51.50;;;;;;1556807;75;802;-55
2023/09/02 04:24:40;;;;;;;;;;;20.70;51.40;;;;;;1543583;75;773;-54
2023/09/02 04:26:42;;;;;;;;;;;20.70;51.40;;;;;;1544080;75;764;-56
2023/09/02 04:28:44;;;;;;;;;;;20.70;51.30;;;;;;1544324;75;802;-57
2023/09/02 04:30:46;;;;;;;;;;;20.70;51.30;;;;;;1546936;75;1115;-56
2023/09/02 04:32:48;;;;;;;;;;;20.70;51.30;;;;;;1548031;75;750;-55
2023/09/02 04:34:50;;;;;;;;;;;20.70;51.30;;;;;;1547449;75;1935;-58
2023/09/02 04:36:52;;;;;;;;;;;20.70;51.30;;;;;;1546957;75;758;-57
2023/09/02 04:38:54;;;;;;;;;;;20.60;51.10;;;;;;1553256;75;681;-57
2023/09/02 04:40:56;;;;;;;;;;;20.70;51.20;;;;;;1547577;75;1123;-58
2023/09/02 04:42:58;;;;;;;;;;;20.70;51.20;;;;;;1553611;75;726;-56
2023/09/02 04:45:00;;;;;;;;;;;20.70;51.20;;;;;;1533640;75;680;-54
2023/09/02 04:47:02;;;;;;;;;;;20.70;51.30;;;;;;1545671;75;812;-57
2023/09/02 04:49:04;;;;;;;;;;;20.70;51.30;;;;;;1543785;75;1546;-55
2023/09/02 04:51:07;;;;;;;;;;;20.60;51.10;;;;;;1542071;75;1106;-57
2023/09/02 04:53:09;;;;;;;;;;;20.70;51.20;;;;;;1545271;75;719;-56
2023/09/02 04:55:11;;;;;;;;;;;20.70;51.20;;;;;;1544872;75;1916;-53
2023/09/02 04:57:13;;;;;;;;;;;20.60;51.00;;;;;;1555280;75;709;-56
2023/09/02 04:59:15;;;;;;;;;;;20.70;51.10;;;;;;1534252;75;1103;-57
2023/09/02 05:01:18;;;;;;;;;;;20.70;51.20;;;;;;1552672;75;669;-55
2023/09/02 05:03:19;;;;;;;;;;;20.70;51.20;;;;;;1556944;75;1555;-57
2023/09/02 05:05:22;;;;;;;;;;;20.60;51.10;;;;;;1547558;75;727;-57
2023/09/02 05:07:23;;;;;;;;;;;20.60;51.10;;;;;;1538494;75;864;-58
2023/09/02 05:09:25;;;;;;;;;;;20.60;51.20;;;;;;1547788;75;1143;-54
2023/09/02 05:11:27;;;;;;;;;;;20.60;51.10;;;;;;1552603;75;796;-58
2023/09/02 05:13:29;;;;;;;;;;;20.70;51.30;;;;;;1551556;75;719;-56
2023/09/02 05:15:31;;;;;;;;;;;20.60;51.20;;;;;;1536728;75;1938;-58
2023/09/02 05:17:33;;;;;;;;;;;20.70;51.50;;;;;;1546985;75;1319;-58
2023/09/02 05:19:35;;;;;;;;;;;20.60;51.30;;;;;;1544825;75;1172;-56
2023/09/02 05:21:37;;;;;;;;;;;20.60;51.40;;;;;;1557690;75;697;-58
2023/09/02 05:23:39;;;;;;;;;;;20.70;51.50;;;;;;1547320;75;826;-57
2023/09/02 05:25:41;;;;;;;;;;;20.70;51.50;;;;;;1545957;75;652;-54
2023/09/02 05:27:43;;;;;;;;;;;20.80;51.60;;;;;;1553525;75;800;-54
2023/09/02 05:29:44;;;;;;;;;;;20.80;51.60;;;;;;1547132;75;1159;-58
2023/09/02 05:31:46;;;;;;;;;;;20.80;51.60;;;;;;1541493;75;1491;-58
2023/09/02 05:33:48;;;;;;;;;;;20.80;51.70;;;;;;1549087;75;710;-56
2023/09/02 05:35:50;;;;;;;;;;;20.90;51.80;;;;;;1535818;75;1930;-57
2023/09/02 05:37:52;;;;;;;;;;;20.90;51.80;;;;;;1546905;75;704;-58
2023/09/02 05:39:54;;;;;;;;;;;20.90;51.90;;;;;;1543798;75;1156;-55
2023/09/02 05:41:56;;;;;;;;;;;20.90;51.90;;;;;;1545875;75;714;-56
2023/09/02 05:43:58;;;;;;;;;;;20.90;51.90;;;;;;1543091;75;781;-55
2023/09/02 05:46:01;;;;;;;;;;;21.00;52.00;;;;;;1532194;76;1514;-54
2023/09/02 05:48:04;;;;;;;;;;;21.00;52.30;;;;;;1526193;76;736;-52
2023/09/02 05:50:06;;;;;;;;;;;21.00;52.40;;;;;;1532248;76;1110;-54
2023/09/02 05:52:08;;;;;;;;;;;21.00;52.60;;;;;;1534098;76;768;-56
2023/09/02 05:54:10;;;;;;;;;;;21.00;52.60;;;;;;1536008;76;1928;-59
2023/09/02 05:56:12;;;;;;;;;;;21.10;52.70;;;;;;1541832;75;721;-57
2023/09/02 05:58:13;;;;;;;;;;;21.20;52.80;;;;;;1564354;75;617;-56
2023/09/02 06:00:15;;;;;;;;;;;21.20;52.90;;;;;;1539078;75;1395;-57
2023/09/02 06:02:17;;;;;;;;;;;21.20;53.00;;;;;;1542326;75;744;-54
2023/09/02 06:04:19;;;;;;;;;;;21.30;53.20;;;;;;1545907;75;750;-58
2023/09/02 06:06:21;;;;;;;;;;;21.30;53.10;;;;;;1540681;75;759;-58
2023/09/02 06:08:23;;;;;;;;;;;21.40;53.20;;;;;;1542128;75;911;-54
2023/09/02 06:10:25;;;;;;;;;;;21.40;53.30;;;;;;1543271;75;1132;-57
2023/09/02 06:12:27;;;;;;;;;;;21.40;53.10;;;;;;1549391;75;1519;-58
2023/09/02 06:14:29;;;;;;;;;;;21.50;53.20;;;;;;1537160;75;1922;-58
2023/09/02 06:16:31;;;;;;;;;;;21.50;53.10;;;;;;1559912;75;679;-57
2023/09/02 06:18:33;;;;;;;;;;;21.50;53.20;;;;;;1539298;76;724;-56
2023/09/02 06:20:35;;;;;;;;;;;21.50;53.10;;;;;;1536176;76;1123;-57
2023/09/02 06:22:37;;;;;;;;;;;21.50;53.20;;;;;;1547472;76;776;-54
2023/09/02 06:24:38;;;;;;;;;;;21.50;53.30;;;;;;1548500;75;803;-58
2023/09/02 06:26:40;;;;;;;;;;;21.50;53.40;;;;;;1550405;75;1451;-57
2023/09/02 06:28:42;;;;;;;;;;;21.50;53.40;;;;;;1543092;75;729;-57
2023/09/02 06:30:44;;;;;;;;;;;21.50;53.50;;;;;;1533280;75;1161;-57
2023/09/02 06:32:46;;;;;;;;;;;21.60;53.60;;;;;;1541973;76;759;-55
2023/09/02 06:34:48;;;;;;;;;;;21.50;53.60;;;;;;1541837;75;1932;-56
2023/09/02 06:36:50;;;;;;;;;;;21.60;53.60;;;;;;1540550;75;694;-55
2023/09/02 06:38:52;;;;;;;;;;;21.50;53.70;;;;;;1552411;75;716;-54
2023/09/02 06:40:54;;;;;;;;;;;21.60;53.60;;;;;;1546113;75;1559;-57
2023/09/02 06:42:56;;;;;;;;;;;21.60;53.70;;;;;;1560596;75;723;-54
2023/09/02 06:44:58;;;;;;;;;;;21.70;53.70;;;;;;1553687;75;758;-57
2023/09/02 06:47:00;;;;;;;;;;;21.80;53.50;;;;;;1545633;75;705;-56
2023/09/02 06:49:05;;;;;;;;;;;21.80;53.40;;;;;;1544717;75;722;-58
2023/09/02 06:51:05;;;;;;;;;;;21.90;53.50;;;;;;1551225;75;1668;-58
2023/09/02 06:53:07;;;;;;;;;;;21.90;53.40;;;;;;1537894;75;659;-56
2023/09/02 06:55:09;;;;;;;;;;;21.90;53.40;;;;;;1569529;75;1952;-56
2023/09/02 06:57:11;;;;;;;;;;;21.90;52.90;;;;;;1522683;77;789;-57
2023/09/02 06:59:13;;;;;;;;;;;22.00;52.90;;;;;;1522934;77;799;-58
2023/09/02 07:01:16;;;;;;;;;;;22.00;52.80;;;;;;1545952;76;720;-54
2023/09/02 07:03:18;;;;;;;;;;;21.90;52.90;;;;;;1553504;76;723;-57
2023/09/02 07:05:20;;;;;;;;;;;21.90;53.30;;;;;;1548373;76;742;-56
2023/09/02 07:07:22;;;;;;;;;;;22.00;53.40;;;;;;1550527;75;756;-56
2023/09/02 07:09:24;;;;;;;;;;;22.10;53.20;;;;;;1550757;75;1554;-54
2023/09/02 07:11:26;;;;;;;;;;;22.00;52.70;;;;;;1566017;75;1070;-58
2023/09/02 07:13:28;;;;;;;;;;;22.10;52.80;;;;;;1561727;75;751;-58
2023/09/02 07:15:29;;;;;;;;;;;22.10;52.60;;;;;;1540976;75;1943;-56
2023/09/02 07:17:31;;;;;;;;;;;22.20;52.80;;;;;;1557087;75;791;-57
2023/09/02 07:19:33;;;;;;;;;;;22.10;52.60;;;;;;1556837;75;1140;-56
2023/09/02 07:21:35;;;;;;;;;;;22.20;52.50;;;;;;1549579;75;760;-57
2023/09/02 07:23:37;;;;;;;;;;;22.20;52.30;;;;;;1553678;75;1519;-58
2023/09/02 07:25:39;;;;;;;;;;;22.20;52.50;;;;;;1552500;75;771;-56
2023/09/02 07:27:41;;;;;;;;;;;22.20;52.30;;;;;;1549307;75;765;-57
2023/09/02 07:29:43;;;;;;;;;;;22.20;52.30;;;;;;1545663;75;1191;-58
2023/09/02 07:31:44;;;;;;;;;;;22.20;52.20;;;;;;1555960;75;647;-58
2023/09/02 07:33:46;;;;;;;;;;;22.20;52.20;;;;;;1553508;75;779;-56
2023/09/02 07:35:48;;;;;;;;;;;22.20;52.20;;;;;;1550161;75;1943;-56
2023/09/02 07:37:50;;;;;;;;;;;22.30;52.40;;;;;;1555141;75;1302;-55
2023/09/02 07:39:52;;;;;;;;;;;22.30;52.20;;;;;;1544597;75;1131;-58
2023/09/02 07:41:54;;;;;;;;;;;22.20;52.10;;;;;;1542503;75;788;-58
2023/09/02 07:43:56;;;;;;;;;;;22.30;52.10;;;;;;1547624;75;786;-58
2023/09/02 07:45:58;;;;;;;;;;;22.30;52.10;;;;;;1558016;75;1339;-56
2023/09/02 07:48:00;;;;;;;;;;;22.30;52.10;;;;;;1534915;76;1409;-56
2023/09/02 07:50:02;;;;;;;;;;;22.20;52.00;;;;;;1535918;76;1449;-57
2023/09/02 07:52:05;;;;;;;;;;;22.30;52.10;;;;;;1545672;75;1476;-58
2023/09/02 07:54:07;;;;;;;;;;;22.30;52.10;;;;;;1546149;75;1493;-58
2023/09/02 07:56:09;;;;;;;;;;;22.30;52.00;;;;;;1550190;75;1936;-58
2023/09/02 07:58:11;;;;;;;;;;;22.30;52.10;;;;;;1541298;75;1501;-56
2023/09/02 08:00:13;;;;;;;;;;;22.30;52.10;;;;;;1546051;75;1509;-57
2023/09/02 08:02:15;;;;;;;;;;;22.20;52.00;;;;;;1550843;75;1503;-58
2023/09/02 08:04:16;;;;;;;;;;;22.30;52.10;;;;;;1540799;75;1461;-58
2023/09/02 08:06:18;;;;;;;;;;;22.30;52.10;;;;;;1545648;75;1809;-55
2023/09/02 08:08:20;;;;;;;;;;;22.30;52.10;;;;;;1551676;75;1470;-54
2023/09/02 08:10:22;;;;;;;;;;;22.30;52.20;;;;;;1561733;75;1475;-58
2023/09/02 08:12:24;;;;;;;;;;;22.30;52.20;;;;;;1519177;77;851;-59
2023/09/02 08:14:26;;;;;;;;;;;22.20;52.10;;;;;;1532126;76;732;-59
2023/09/02 08:16:28;;;;;;;;;;;22.30;52.10;;;;;;1550146;75;1921;-59
2023/09/02 08:18:30;;;;;;;;;;;22.30;52.20;;;;;;1545557;75;889;-58
2023/09/02 08:20:32;;;;;;;;;;;22.30;52.20;;;;;;1540298;75;1564;-58
2023/09/02 08:22:34;;;;;;;;;;;22.40;52.30;;;;;;1546630;75;748;-56
2023/09/02 08:24:36;;;;;;;;;;;22.30;52.30;;;;;;1541888;75;797;-57
2023/09/02 08:26:38;;;;;;;;;;;22.40;52.30;;;;;;1544679;75;750;-58
2023/09/02 08:28:40;;;;;;;;;;;22.40;52.30;;;;;;1540911;75;847;-57
2023/09/02 08:30:43;;;;;;;;;;;22.40;52.30;;;;;;1540338;75;1212;-58
2023/09/02 08:32:45;;;;;;;;;;;22.30;52.40;;;;;;1542244;75;763;-57
2023/09/02 08:34:46;;;;;;;;;;;22.30;52.40;;;;;;1549962;75;1221;-58
2023/09/02 08:36:48;;;;;;;;;;;22.40;52.40;;;;;;1540425;76;1931;-57
2023/09/02 08:38:53;;;;;;;;;;;22.30;52.50;;;;;;1556543;75;790;-59
2023/09/02 08:40:55;;;;;;;;;;;22.40;52.50;;;;;;1521587;77;1146;-57
2023/09/02 08:42:56;;;;;;;;;;;22.30;52.50;;;;;;1533833;77;682;-56
2023/09/02 08:44:58;;;;;;;;;;;22.30;52.50;;;;;;1526479;77;771;-57
2023/09/02 08:47:00;;;;;;;;;;;22.30;52.50;;;;;;1523721;77;701;-58
2023/09/02 08:49:03;;;;;;;;;;;22.40;52.50;;;;;;1552696;75;1256;-58
2023/09/02 08:51:04;;;;;;;;;;;22.40;52.60;;;;;;1559217;75;1202;-59
2023/09/02 08:53:07;;;;;;;;;;;22.40;52.60;;;;;;1523529;76;807;-57
2023/09/02 08:55:09;;;;;;;;;;;22.40;52.60;;;;;;1559426;75;765;-59
2023/09/02 08:57:11;;;;;;;;;;;22.40;52.60;;;;;;1544569;76;2203;-57
2023/09/02 08:59:16;;;;;;;;;;;22.40;52.70;;;;;;1522905;77;758;-59
2023/09/02 09:01:19;;;;;;;;;;;22.40;52.70;;;;;;1522012;77;1512;-58
2023/09/02 09:03:21;;;;;;;;;;;22.40;52.70;;;;;;1542815;76;944;-56
2023/09/02 09:05:23;;;;;;;;;;;22.40;52.80;;;;;;1522170;77;743;-58
2023/09/02 09:07:24;;;;;;;;;;;22.40;52.80;;;;;;1521786;77;796;-56
2023/09/02 09:09:26;;;;;;;;;;;22.40;52.80;;;;;;1544235;75;1088;-57
2023/09/02 09:11:28;;;;;;;;;;;22.40;52.80;;;;;;1539832;75;793;-59
2023/09/02 09:13:30;;;;;;;;;;;22.40;52.90;;;;;;1541393;75;712;-59
2023/09/02 09:15:33;;;;;;;;;;;22.40;52.90;;;;;;1539784;75;1935;-59
2023/09/02 09:17:34;;;;;;;;;;;22.40;52.90;;;;;;1542021;75;737;-59
2023/09/02 09:19:36;;;;;;;;;;;22.40;52.90;;;;;;1546048;75;1110;-57
2023/09/02 09:21:38;;;;;;;;;;;22.40;52.90;;;;;;1556832;75;773;-58
2023/09/02 09:23:40;;;;;;;;;;;22.40;53.00;;;;;;1542683;75;636;-57
2023/09/02 09:25:42;;;;;;;;;;;22.40;52.90;;;;;;1545000;75;789;-57
2023/09/02 09:27:44;;;;;;;;;;;22.40;52.90;;;;;;1553307;75;730;-57
2023/09/02 09:29:46;;;;;;;;;;;22.40;53.00;;;;;;1550677;75;1342;-58
2023/09/02 09:31:49;;;;;;;;;;;22.40;53.30;;;;;;1548803;75;803;-57
2023/09/02 09:33:53;;;;;;;;;;;22.40;53.40;;;;;;1543652;75;729;-55
2023/09/02 09:35:56;;;;;;;;;;;22.40;53.80;;;;;;1551034;75;1931;-56
2023/09/02 09:37:58;;;;;;;;;;;22.50;54.20;;;;;;1558434;75;1492;-56
2023/09/02 09:40:01;;;;;;;;;;;22.50;54.50;;;;;;1529211;76;1103;-53
2023/09/02 09:42:03;;;;;;;;;;;22.50;54.20;;;;;;1538691;76;648;-51
2023/09/02 09:44:12;;;;;;;;;;;22.60;54.30;;;;;;1562575;75;1493;-49
2023/09/02 09:46:18;;;;;;;;;;;22.60;55.10;;;;;;1557931;75;764;-53
2023/09/02 09:48:17;;;;;;;;;;;22.50;54.90;;;;;;1520481;76;1301;-50
2023/09/02 09:50:20;;;;;;;;;;;22.60;55.20;;;;;;1538722;76;1142;-58
2023/09/02 09:52:21;;;;;;;;;;;22.60;55.00;;;;;;1522297;77;746;-51
2023/09/02 09:54:27;;;;;;;;;;;22.60;54.80;;;;;;1534621;76;792;-50
2023/09/02 09:56:29;;;;;;;;;;;22.70;55.90;;;;;;1525204;77;1905;-50
2023/09/02 09:58:31;;;;;;;;;;;22.90;56.30;;;;;;1520172;77;1656;-50
2023/09/02 10:00:32;;;;;;;;;;;22.90;56.30;;;;;;1542824;76;1135;-49
2023/09/02 10:02:35;;;;;;;;;;;22.90;57.00;;;;;;1516726;76;832;-51
2023/09/02 10:04:36;;;;;;;;;;;23.00;56.60;;;;;;1524293;76;812;-50
2023/09/02 10:06:38;;;;;;;;;;;22.90;57.90;;;;;;1517408;77;786;-52
2023/09/02 10:08:53;;;;;;;;;;;23.20;56.60;;;;;;1565426;75;746;-49
2023/09/02 10:10:55;;;;;;;;;;;23.20;56.20;;;;;;1518904;76;1118;-47
2023/09/02 10:12:58;;;;;;;;;;;23.20;55.90;;;;;;1541819;76;1614;-51
2023/09/02 10:15:00;;;;;;;;;;;23.10;55.60;;;;;;1554818;75;808;-49
2023/09/02 10:17:02;;;;;;;;;;;23.00;55.30;;;;;;1565402;75;1904;-47
2023/09/02 10:19:04;;;;;;;;;;;23.10;55.80;;;;;;1531086;75;619;-50
2023/09/02 10:21:06;;;;;;;;;;;23.10;55.90;;;;;;1546083;75;1212;-47
2023/09/02 10:23:08;;;;;;;;;;;23.10;55.80;;;;;;1540271;75;757;-51
2023/09/02 10:25:18;;;;;;;;;;;23.00;55.40;;;;;;1546041;75;816;-50
2023/09/02 10:27:22;;;;;;;;;;;23.10;55.50;;;;;;1550997;75;1595;-49
2023/09/02 10:29:25;;;;;;;;;;;23.10;56.00;;;;;;1535358;75;1327;-51
2023/09/02 10:31:29;;;;;;;;;;;23.00;55.80;;;;;;1553520;75;729;-53
2023/09/02 10:33:32;;;;;;;;;;;23.00;55.50;;;;;;1539699;76;1895;-49
2023/09/02 10:35:34;;;;;;;;;;;23.00;55.20;;;;;;1534509;76;937;-48
2023/09/02 10:37:44;;;;;;;;;;;23.00;55.30;;;;;;1522667;77;1944;-50
2023/09/02 10:39:53;;;;;;;;;;;23.00;55.40;;;;;;1545517;76;1513;-50
2023/09/02 10:41:55;;;;;;;;;;;22.90;55.30;;;;;;1523528;77;667;-51
2023/09/02 10:43:57;;;;;;;;;;;22.90;55.20;;;;;;1543386;76;688;-51
2023/09/02 10:45:59;;;;;;;;;;;22.90;55.20;;;;;;1520485;76;772;-52
2023/09/02 10:48:01;;;;;;;;;;;22.80;55.10;;;;;;1556007;75;750;-52
2023/09/02 10:50:03;;;;;;;;;;;22.90;55.20;;;;;;1534206;76;1135;-49
2023/09/02 10:52:05;;;;;;;;;;;22.80;55.10;;;;;;1526888;76;705;-50
2023/09/02 10:54:07;;;;;;;;;;;22.90;55.20;;;;;;1552945;76;1584;-50
2023/09/02 10:56:09;;;;;;;;;;;22.80;55.10;;;;;;1541178;76;1918;-49
2023/09/02 10:58:11;;;;;;;;;;;22.80;55.20;;;;;;1541346;76;714;-49
2023/09/02 11:00:19;;;;;;;;;;;22.80;55.10;;;;;;1525914;76;1104;-52
2023/09/02 11:02:39;;;;;;;;;;;22.80;55.20;;;;;;1538771;76;777;-50
2023/09/02 11:04:48;;;;;;;;;;;22.80;55.10;;;;;;1524415;77;707;-48
2023/09/02 11:07:04;;;;;;;;;;;22.90;55.20;;;;;;1520668;77;1424;-52
2023/09/02 11:09:06;;;;;;;;;;;22.80;55.20;;;;;;1537569;76;1300;-51
2023/09/02 11:11:08;;;;;;;;;;;22.80;55.20;;;;;;1544505;76;1106;-52
2023/09/02 11:13:10;;;;;;;;;;;22.70;55.20;;;;;;1541997;76;684;-51
2023/09/02 11:15:15;;;;;;;;;;;22.70;55.30;;;;;;1518805;76;794;-49
2023/09/02 11:17:31;;;;;;;;;;;22.70;55.20;;;;;;1536540;76;1903;-51
2023/09/02 11:19:48;;;;;;;;;;;22.70;55.20;;;;;;1533170;75;1706;-52
2023/09/02 11:21:50;;;;;;;;;;;22.70;55.20;;;;;;1541046;75;1502;-51
2023/09/02 11:23:52;;;;;;;;;;;22.70;55.20;;;;;;1554220;75;784;-52
2023/09/02 11:26:01;;;;;;;;;;;22.70;55.20;;;;;;1539015;75;785;-52
2023/09/02 11:28:03;;;;;;;;;;;22.80;55.30;;;;;;1549647;75;776;-52
2023/09/02 11:30:08;;;;;;;;;;;22.70;55.20;;;;;;1563329;75;1205;-48
2023/09/02 11:32:10;;;;;;;;;;;22.70;55.20;;;;;;1529931;76;760;-52
2023/09/02 11:34:14;;;;;;;;;;;22.70;55.20;;;;;;1559204;75;799;-52
2023/09/02 11:36:16;;;;;;;;;;;22.60;55.20;;;;;;1529603;76;1940;-49
2023/09/02 11:38:21;;;;;;;;;;;22.60;55.30;;;;;;1540589;76;731;-51
2023/09/02 11:40:24;;;;;;;;;;;22.60;55.30;;;;;;1547768;76;1149;-50
2023/09/02 11:42:27;;;;;;;;;;;22.60;55.30;;;;;;1534932;76;724;-50
2023/09/02 11:44:29;;;;;;;;;;;22.70;55.50;;;;;;1536260;75;768;-52
2023/09/02 11:46:31;;;;;;;;;;;22.70;55.50;;;;;;1545412;75;688;-51
2023/09/02 11:48:33;;;;;;;;;;;22.60;55.50;;;;;;1551465;75;724;-48
2023/09/02 11:50:35;;;;;;;;;;;22.70;55.50;;;;;;1545471;75;1392;-52
2023/09/02 11:52:37;;;;;;;;;;;22.70;55.50;;;;;;1544584;75;1014;-49
2023/09/02 11:54:39;;;;;;;;;;;22.60;55.50;;;;;;1561006;75;822;-51
2023/09/02 11:56:41;;;;;;;;;;;22.60;55.50;;;;;;1523224;77;1936;-50
2023/09/02 11:58:43;;;;;;;;;;;22.60;55.50;;;;;;1535919;76;728;-52
2023/09/02 12:00:45;;;;;;;;;;;22.60;55.60;;;;;;1551032;75;1103;-51
2023/09/02 12:02:47;;;;;;;;;;;22.60;55.60;;;;;;1542617;75;737;-52
2023/09/02 12:04:49;;;;;;;;;;;22.60;55.60;;;;;;1552209;75;1457;-51
2023/09/02 12:06:51;;;;;;;;;;;22.60;55.50;;;;;;1531397;76;833;-51
2023/09/02 12:08:53;;;;;;;;;;;22.60;55.70;;;;;;1525190;76;774;-52